DAL22 KBUF-KCLE
Flight info
| Callsign | DAL22 |
|---|---|
| Flight time | 0h 34m |
| Altitude | 28000 |
| Route | TRYBE TRYBE4 |
| Aircraft | B738/M-SDE2E3FGHIRWXY/LB1 |
Departure
| Time | 2026-05-05 22:11 |
|---|---|
| Airport | Buffalo Niagara International Airport (KBUF) |
Arrival
| Time | 2026-05-05 22:46 |
|---|---|
| Airport | Cleveland Hopkins International Airport (KCLE) |
| Time | Latitude | Longitude | Altitude | Speed | Heading |
|---|---|---|---|---|---|
| 2026-05-05 21:52 | 42.93664 | -78.72874 | 725 ft | 0 kts | 283° |
| 2026-05-05 22:02 | 42.93662 | -78.72865 | 718 ft | 2 kts | 303° |
| 2026-05-05 22:02 | 42.93649 | -78.72854 | 720 ft | 2 kts | 8° |
| 2026-05-05 22:02 | 42.93639 | -78.72859 | 717 ft | 0 kts | 51° |
| 2026-05-05 22:07 | 42.93640 | -78.72858 | 724 ft | 0 kts | 51° |
| 2026-05-05 22:07 | 42.93662 | -78.72812 | 725 ft | 11 kts | 54° |
| 2026-05-05 22:08 | 42.93724 | -78.72747 | 724 ft | 11 kts | 35° |
| 2026-05-05 22:08 | 42.93783 | -78.72684 | 724 ft | 11 kts | 39° |
| 2026-05-05 22:08 | 42.93856 | -78.72640 | 723 ft | 13 kts | 4° |
| 2026-05-05 22:08 | 42.93957 | -78.72636 | 724 ft | 16 kts | 0° |
| 2026-05-05 22:09 | 42.94090 | -78.72635 | 725 ft | 22 kts | 2° |
| 2026-05-05 22:09 | 42.94225 | -78.72516 | 725 ft | 26 kts | 43° |
| 2026-05-05 22:09 | 42.94365 | -78.72333 | 726 ft | 30 kts | 43° |
| 2026-05-05 22:09 | 42.94521 | -78.72125 | 726 ft | 32 kts | 44° |
| 2026-05-05 22:10 | 42.94673 | -78.71928 | 727 ft | 28 kts | 45° |
| 2026-05-05 22:10 | 42.94773 | -78.71813 | 730 ft | 9 kts | 11° |
| 2026-05-05 22:10 | 42.94786 | -78.71813 | 727 ft | 2 kts | 354° |
| 2026-05-05 22:10 | 42.94822 | -78.71840 | 728 ft | 8 kts | 315° |
| 2026-05-05 22:11 | 42.94823 | -78.71931 | 727 ft | 14 kts | 234° |
| 2026-05-05 22:11 | 42.94585 | -78.72257 | 727 ft | 95 kts | 224° |
| 2026-05-05 22:11 | 42.93895 | -78.73148 | 796 ft | 171 kts | 223° |
| 2026-05-05 22:11 | 42.92907 | -78.74337 | 1596 ft | 194 kts | 227° |
| 2026-05-05 22:12 | 42.91938 | -78.75536 | 2911 ft | 193 kts | 224° |
| 2026-05-05 22:12 | 42.90837 | -78.76715 | 3377 ft | 217 kts | 223° |
| 2026-05-05 22:12 | 42.89562 | -78.78106 | 3746 ft | 246 kts | 224° |
| 2026-05-05 22:12 | 42.88251 | -78.79583 | 4870 ft | 244 kts | 224° |
| 2026-05-05 22:13 | 42.86996 | -78.81048 | 6229 ft | 230 kts | 226° |
| 2026-05-05 22:13 | 42.85957 | -78.82694 | 7374 ft | 231 kts | 234° |
| 2026-05-05 22:13 | 42.84956 | -78.84461 | 8377 ft | 239 kts | 234° |
| 2026-05-05 22:13 | 42.83930 | -78.86236 | 9664 ft | 237 kts | 234° |
| 2026-05-05 22:14 | 42.82921 | -78.88021 | 10617 ft | 247 kts | 237° |
| 2026-05-05 22:14 | 42.81837 | -78.90004 | 10985 ft | 278 kts | 231° |
| 2026-05-05 22:14 | 42.80511 | -78.92115 | 11183 ft | 309 kts | 238° |
| 2026-05-05 22:14 | 42.79578 | -78.94849 | 11680 ft | 327 kts | 241° |
| 2026-05-05 22:15 | 42.77944 | -78.96998 | 12591 ft | 332 kts | 219° |
| 2026-05-05 22:15 | 42.76180 | -78.99034 | 13352 ft | 334 kts | 230° |
| 2026-05-05 22:15 | 42.74680 | -79.01472 | 14057 ft | 337 kts | 234° |
| 2026-05-05 22:15 | 42.73226 | -79.03994 | 14787 ft | 340 kts | 233° |
| 2026-05-05 22:16 | 42.71748 | -79.06528 | 15552 ft | 343 kts | 233° |
| 2026-05-05 22:16 | 42.70255 | -79.09078 | 16235 ft | 346 kts | 233° |
| 2026-05-05 22:16 | 42.68745 | -79.11659 | 16904 ft | 351 kts | 233° |
| 2026-05-05 22:16 | 42.67218 | -79.14268 | 17575 ft | 354 kts | 233° |
| 2026-05-05 22:17 | 42.65697 | -79.16865 | 18225 ft | 357 kts | 233° |
| 2026-05-05 22:17 | 42.64143 | -79.19520 | 18798 ft | 360 kts | 233° |
| 2026-05-05 22:17 | 42.62578 | -79.22190 | 19405 ft | 362 kts | 233° |
| 2026-05-05 22:17 | 42.60999 | -79.24883 | 19987 ft | 365 kts | 233° |
| 2026-05-05 22:18 | 42.59410 | -79.27593 | 20563 ft | 368 kts | 233° |
| 2026-05-05 22:18 | 42.57809 | -79.30320 | 21121 ft | 370 kts | 233° |
| 2026-05-05 22:18 | 42.56194 | -79.33068 | 21663 ft | 373 kts | 233° |
| 2026-05-05 22:18 | 42.54571 | -79.35827 | 22176 ft | 376 kts | 233° |
| 2026-05-05 22:19 | 42.52953 | -79.38576 | 22680 ft | 379 kts | 233° |
| 2026-05-05 22:19 | 42.51291 | -79.41397 | 22952 ft | 388 kts | 233° |
| 2026-05-05 22:19 | 42.49594 | -79.44274 | 23476 ft | 389 kts | 233° |
| 2026-05-05 22:19 | 42.47907 | -79.47132 | 24016 ft | 388 kts | 233° |
| 2026-05-05 22:20 | 42.46219 | -79.49986 | 24512 ft | 387 kts | 233° |
| 2026-05-05 22:20 | 42.44567 | -79.52777 | 25572 ft | 372 kts | 233° |
| 2026-05-05 22:20 | 42.42971 | -79.55466 | 26640 ft | 358 kts | 234° |
| 2026-05-05 22:20 | 42.41433 | -79.58056 | 27526 ft | 350 kts | 234° |
| 2026-05-05 22:21 | 42.39940 | -79.60571 | 27845 ft | 342 kts | 234° |
| 2026-05-05 22:21 | 42.38460 | -79.63065 | 27845 ft | 337 kts | 234° |
| 2026-05-05 22:21 | 42.36999 | -79.65525 | 27860 ft | 334 kts | 234° |
| 2026-05-05 22:21 | 42.35549 | -79.67968 | 27869 ft | 333 kts | 234° |
| 2026-05-05 22:22 | 42.34094 | -79.70416 | 27874 ft | 334 kts | 234° |
| 2026-05-05 22:22 | 42.32636 | -79.72867 | 27872 ft | 336 kts | 234° |
| 2026-05-05 22:22 | 42.31152 | -79.75362 | 27883 ft | 344 kts | 234° |
| 2026-05-05 22:22 | 42.29636 | -79.77907 | 27882 ft | 353 kts | 234° |
| 2026-05-05 22:23 | 42.28070 | -79.80536 | 27889 ft | 364 kts | 234° |
| 2026-05-05 22:23 | 42.26456 | -79.83240 | 27879 ft | 374 kts | 234° |
| 2026-05-05 22:23 | 42.24801 | -79.86010 | 27884 ft | 383 kts | 234° |
| 2026-05-05 22:23 | 42.23131 | -79.88801 | 27880 ft | 391 kts | 234° |
| 2026-05-05 22:24 | 42.21414 | -79.91664 | 27867 ft | 392 kts | 234° |
| 2026-05-05 22:24 | 42.19700 | -79.94515 | 27859 ft | 389 kts | 234° |
| 2026-05-05 22:24 | 42.17996 | -79.97349 | 27857 ft | 388 kts | 234° |
| 2026-05-05 22:24 | 42.16299 | -80.00171 | 27840 ft | 387 kts | 234° |
| 2026-05-05 22:25 | 42.14604 | -80.02986 | 27863 ft | 386 kts | 234° |
| 2026-05-05 22:25 | 42.12907 | -80.05803 | 27872 ft | 386 kts | 234° |
| 2026-05-05 22:25 | 42.11236 | -80.08576 | 27877 ft | 387 kts | 234° |
| 2026-05-05 22:25 | 42.09536 | -80.11394 | 27871 ft | 388 kts | 234° |
| 2026-05-05 22:26 | 42.07829 | -80.14222 | 27870 ft | 388 kts | 234° |
| 2026-05-05 22:26 | 42.06121 | -80.17047 | 27886 ft | 389 kts | 234° |
| 2026-05-05 22:26 | 42.04411 | -80.19875 | 27874 ft | 390 kts | 234° |
| 2026-05-05 22:26 | 42.02697 | -80.22704 | 27870 ft | 390 kts | 234° |
| 2026-05-05 22:27 | 42.00984 | -80.25530 | 27775 ft | 390 kts | 234° |
| 2026-05-05 22:27 | 41.99265 | -80.28365 | 27236 ft | 388 kts | 233° |
| 2026-05-05 22:27 | 41.97551 | -80.31189 | 26671 ft | 390 kts | 233° |
| 2026-05-05 22:27 | 41.95836 | -80.34010 | 26038 ft | 388 kts | 233° |
| 2026-05-05 22:28 | 41.94137 | -80.36801 | 25429 ft | 384 kts | 233° |
| 2026-05-05 22:28 | 41.93021 | -80.38633 | 25027 ft | 381 kts | 233° |
| 2026-05-05 22:28 | 41.91345 | -80.41382 | 24428 ft | 378 kts | 232° |
| 2026-05-05 22:28 | 41.89143 | -80.44994 | 23609 ft | 376 kts | 232° |
| 2026-05-05 22:29 | 41.87486 | -80.47708 | 22933 ft | 375 kts | 232° |
| 2026-05-05 22:29 | 41.85837 | -80.50406 | 22287 ft | 373 kts | 233° |
| 2026-05-05 22:29 | 41.84749 | -80.52185 | 21856 ft | 372 kts | 232° |
| 2026-05-05 22:29 | 41.83118 | -80.54850 | 21255 ft | 367 kts | 232° |
| 2026-05-05 22:30 | 41.81503 | -80.57486 | 20651 ft | 364 kts | 232° |
| 2026-05-05 22:30 | 41.79900 | -80.60099 | 20030 ft | 361 kts | 232° |
| 2026-05-05 22:30 | 41.78311 | -80.62688 | 19465 ft | 357 kts | 232° |
| 2026-05-05 22:30 | 41.76741 | -80.65245 | 18899 ft | 353 kts | 232° |
| 2026-05-05 22:31 | 41.75183 | -80.67779 | 18321 ft | 352 kts | 232° |
| 2026-05-05 22:31 | 41.73627 | -80.70317 | 17658 ft | 352 kts | 232° |
| 2026-05-05 22:31 | 41.72070 | -80.72849 | 17009 ft | 350 kts | 232° |
| 2026-05-05 22:31 | 41.70527 | -80.75349 | 16419 ft | 345 kts | 232° |
| 2026-05-05 22:32 | 41.69025 | -80.77782 | 15863 ft | 340 kts | 231° |
| 2026-05-05 22:32 | 41.67529 | -80.80204 | 15384 ft | 334 kts | 231° |
| 2026-05-05 22:32 | 41.66064 | -80.82575 | 14864 ft | 329 kts | 231° |
| 2026-05-05 22:32 | 41.64612 | -80.84924 | 14340 ft | 325 kts | 231° |
| 2026-05-05 22:33 | 41.63177 | -80.87244 | 13801 ft | 322 kts | 231° |
| 2026-05-05 22:33 | 41.61756 | -80.89538 | 13198 ft | 319 kts | 231° |
| 2026-05-05 22:33 | 41.60347 | -80.91813 | 12657 ft | 316 kts | 231° |
| 2026-05-05 22:33 | 41.58946 | -80.94074 | 12104 ft | 314 kts | 231° |
| 2026-05-05 22:34 | 41.57558 | -80.96312 | 11562 ft | 311 kts | 231° |
| 2026-05-05 22:34 | 41.56180 | -80.98533 | 11028 ft | 309 kts | 231° |
| 2026-05-05 22:34 | 41.54833 | -81.00700 | 10612 ft | 304 kts | 231° |
| 2026-05-05 22:34 | 41.53510 | -81.02825 | 10470 ft | 293 kts | 231° |
| 2026-05-05 22:35 | 41.52302 | -81.04940 | 10328 ft | 280 kts | 241° |
| 2026-05-05 22:35 | 41.51626 | -81.07328 | 10240 ft | 270 kts | 254° |
| 2026-05-05 22:35 | 41.51382 | -81.09771 | 10131 ft | 262 kts | 262° |
| 2026-05-05 22:35 | 41.51290 | -81.12154 | 10018 ft | 252 kts | 263° |
| 2026-05-05 22:36 | 41.51221 | -81.14443 | 9865 ft | 245 kts | 263° |
| 2026-05-05 22:36 | 41.51145 | -81.16724 | 9527 ft | 245 kts | 263° |
| 2026-05-05 22:36 | 41.51063 | -81.18991 | 9188 ft | 244 kts | 263° |
| 2026-05-05 22:36 | 41.50975 | -81.21247 | 8879 ft | 243 kts | 262° |
| 2026-05-05 22:37 | 41.50884 | -81.23489 | 8571 ft | 241 kts | 262° |
| 2026-05-05 22:37 | 41.50792 | -81.25720 | 8284 ft | 240 kts | 262° |
| 2026-05-05 22:37 | 41.50700 | -81.27939 | 7991 ft | 239 kts | 262° |
| 2026-05-05 22:37 | 41.50608 | -81.30118 | 7698 ft | 238 kts | 262° |
| 2026-05-05 22:38 | 41.50513 | -81.32321 | 7405 ft | 237 kts | 262° |
| 2026-05-05 22:38 | 41.50419 | -81.34512 | 7119 ft | 237 kts | 262° |
| 2026-05-05 22:38 | 41.50324 | -81.36715 | 6815 ft | 236 kts | 262° |
| 2026-05-05 22:38 | 41.50229 | -81.38907 | 6528 ft | 236 kts | 262° |
| 2026-05-05 22:39 | 41.50133 | -81.41097 | 6227 ft | 236 kts | 262° |
| 2026-05-05 22:39 | 41.50040 | -81.43276 | 5962 ft | 234 kts | 262° |
| 2026-05-05 22:39 | 41.49958 | -81.45426 | 5738 ft | 231 kts | 263° |
| 2026-05-05 22:39 | 41.49878 | -81.47548 | 5516 ft | 233 kts | 263° |
| 2026-05-05 22:40 | 41.49796 | -81.49718 | 5317 ft | 234 kts | 263° |
| 2026-05-05 22:40 | 41.49714 | -81.51881 | 5105 ft | 233 kts | 263° |
| 2026-05-05 22:40 | 41.49632 | -81.54037 | 4894 ft | 233 kts | 263° |
| 2026-05-05 22:40 | 41.49549 | -81.56197 | 4677 ft | 233 kts | 263° |
| 2026-05-05 22:41 | 41.49464 | -81.58354 | 4444 ft | 231 kts | 264° |
| 2026-05-05 22:41 | 41.49382 | -81.60481 | 4223 ft | 228 kts | 264° |
| 2026-05-05 22:41 | 41.49302 | -81.62552 | 4024 ft | 224 kts | 264° |
| 2026-05-05 22:41 | 41.49222 | -81.64612 | 3825 ft | 221 kts | 264° |
| 2026-05-05 22:42 | 41.49141 | -81.66653 | 3637 ft | 218 kts | 266° |
| 2026-05-05 22:42 | 41.49062 | -81.68643 | 3427 ft | 210 kts | 267° |
| 2026-05-05 22:42 | 41.48987 | -81.70505 | 3241 ft | 190 kts | 268° |
| 2026-05-05 22:42 | 41.48918 | -81.72160 | 3076 ft | 168 kts | 266° |
| 2026-05-05 22:43 | 41.48527 | -81.73509 | 2997 ft | 150 kts | 236° |
| 2026-05-05 22:43 | 41.47934 | -81.74594 | 2806 ft | 143 kts | 242° |
| 2026-05-05 22:43 | 41.47336 | -81.75678 | 2648 ft | 145 kts | 236° |
| 2026-05-05 22:43 | 41.46710 | -81.76696 | 2422 ft | 140 kts | 236° |
| 2026-05-05 22:44 | 41.46084 | -81.77693 | 2226 ft | 145 kts | 236° |
| 2026-05-05 22:44 | 41.45424 | -81.78740 | 2034 ft | 151 kts | 234° |
| 2026-05-05 22:44 | 41.44746 | -81.79815 | 1821 ft | 153 kts | 234° |
| 2026-05-05 22:44 | 41.44060 | -81.80901 | 1581 ft | 152 kts | 235° |
| 2026-05-05 22:45 | 41.43373 | -81.81991 | 1393 ft | 156 kts | 235° |
| 2026-05-05 22:45 | 41.42670 | -81.83097 | 1171 ft | 153 kts | 233° |
| 2026-05-05 22:45 | 41.42001 | -81.84146 | 959 ft | 141 kts | 234° |
| 2026-05-05 22:45 | 41.41398 | -81.85101 | 802 ft | 124 kts | 238° |
| 2026-05-05 22:46 | 41.40923 | -81.85870 | 786 ft | 87 kts | 229° |
| 2026-05-05 22:46 | 41.40620 | -81.86339 | 782 ft | 58 kts | 229° |
| 2026-05-05 22:46 | 41.40434 | -81.86583 | 775 ft | 21 kts | 208° |
| 2026-05-05 22:46 | 41.40318 | -81.86634 | 773 ft | 12 kts | 173° |
| 2026-05-05 22:47 | 41.40256 | -81.86588 | 772 ft | 11 kts | 139° |
| 2026-05-05 22:47 | 41.40186 | -81.86506 | 770 ft | 15 kts | 140° |
| 2026-05-05 22:47 | 41.40102 | -81.86414 | 769 ft | 15 kts | 141° |
| 2026-05-05 22:47 | 41.40022 | -81.86325 | 771 ft | 14 kts | 141° |
| 2026-05-05 22:48 | 41.39992 | -81.86223 | 772 ft | 13 kts | 68° |
| 2026-05-05 22:48 | 41.40047 | -81.86130 | 774 ft | 14 kts | 49° |
| 2026-05-05 22:48 | 41.40118 | -81.86015 | 774 ft | 19 kts | 48° |
| 2026-05-05 22:48 | 41.40242 | -81.85946 | 778 ft | 20 kts | 8° |
| 2026-05-05 22:49 | 41.40352 | -81.85846 | 781 ft | 19 kts | 53° |
| 2026-05-05 22:49 | 41.40437 | -81.85714 | 785 ft | 19 kts | 48° |
| 2026-05-05 22:49 | 41.40519 | -81.85583 | 784 ft | 18 kts | 50° |
| 2026-05-05 22:49 | 41.40599 | -81.85458 | 784 ft | 17 kts | 50° |
| 2026-05-05 22:50 | 41.40654 | -81.85322 | 784 ft | 17 kts | 88° |
| 2026-05-05 22:50 | 41.40648 | -81.85170 | 785 ft | 16 kts | 91° |
| 2026-05-05 22:50 | 41.40641 | -81.85023 | 789 ft | 16 kts | 93° |
| 2026-05-05 22:50 | 41.40636 | -81.84883 | 790 ft | 15 kts | 93° |
| 2026-05-05 22:51 | 41.40629 | -81.84748 | 791 ft | 14 kts | 94° |
| 2026-05-05 22:51 | 41.40623 | -81.84618 | 794 ft | 14 kts | 93° |
| 2026-05-05 22:51 | 41.40620 | -81.84494 | 796 ft | 13 kts | 85° |
| 2026-05-05 22:51 | 41.40685 | -81.84431 | 799 ft | 13 kts | 2° |
| 2026-05-05 22:52 | 41.40773 | -81.84427 | 796 ft | 12 kts | 11° |
| 2026-05-05 22:52 | 41.40848 | -81.84379 | 797 ft | 12 kts | 37° |
| 2026-05-05 22:52 | 41.40905 | -81.84298 | 797 ft | 12 kts | 56° |
| 2026-05-05 22:52 | 41.40953 | -81.84211 | 797 ft | 12 kts | 50° |
| 2026-05-05 22:53 | 41.41004 | -81.84136 | 797 ft | 10 kts | 48° |
| 2026-05-05 22:53 | 41.41033 | -81.84069 | 797 ft | 8 kts | 71° |
| 2026-05-05 22:53 | 41.41059 | -81.84009 | 797 ft | 6 kts | 19° |
| 2026-05-05 22:53 | 41.41081 | -81.84008 | 797 ft | 3 kts | 9° |
| 2026-05-05 22:54 | 41.41088 | -81.84006 | 797 ft | 0 kts | 12° |